createdAt,value
2023-01-03T00:02:38.895Z,11.73
2023-01-03T00:05:26.340Z,12.17
2023-01-03T00:08:15.299Z,8.87
2023-01-03T00:11:02.656Z,8.90
2023-01-03T00:13:50.018Z,7.77
2023-01-03T00:16:37.748Z,7.17
2023-01-03T00:19:26.223Z,9.13
2023-01-03T00:22:14.417Z,6.93
2023-01-03T00:25:01.853Z,11.63
2023-01-03T00:27:49.285Z,7.83
2023-01-03T00:30:36.740Z,9.67
2023-01-03T00:33:24.105Z,11.10
2023-01-03T00:36:11.454Z,5.97
2023-01-03T00:38:58.871Z,13.53
2023-01-03T00:41:46.262Z,9.63
2023-01-03T00:44:33.645Z,9.03
2023-01-03T00:47:21.009Z,6.17
2023-01-03T00:50:08.401Z,9.83
2023-01-03T00:52:56.461Z,11.50
2023-01-03T00:55:43.801Z,10.17
2023-01-03T00:58:31.981Z,6.07
2023-01-03T01:01:20.873Z,9.47
2023-01-03T01:04:13.543Z,7.47
2023-01-03T01:07:02.173Z,7.50
2023-01-03T01:09:51.249Z,10.23
2023-01-03T01:12:38.637Z,8.83
2023-01-03T01:15:25.991Z,6.90
2023-01-03T01:18:13.383Z,7.73
2023-01-03T01:21:00.783Z,5.83
2023-01-03T01:23:48.404Z,5.30
2023-01-03T01:26:35.754Z,8.27
2023-01-03T01:29:23.086Z,9.03
2023-01-03T01:32:10.500Z,4.43
2023-01-03T01:34:57.854Z,12.27
2023-01-03T01:37:45.245Z,7.43
2023-01-03T01:40:32.700Z,7.63
2023-01-03T01:43:43.333Z,7.67
2023-01-03T01:46:33.185Z,5.03
2023-01-03T01:49:23.664Z,4.73
2023-01-03T01:52:11.245Z,3.70
2023-01-03T01:54:59.203Z,8.87
2023-01-03T01:57:46.924Z,4.93
2023-01-03T02:00:34.807Z,4.93
2023-01-03T02:03:22.361Z,4.67
2023-01-03T02:06:10.802Z,7.77
2023-01-03T02:08:58.186Z,10.90
2023-01-03T02:12:18.547Z,8.57
2023-01-03T02:15:15.026Z,7.50
2023-01-03T02:18:02.399Z,3.00
2023-01-03T02:21:06.411Z,8.40
2023-01-03T02:24:11.828Z,3.23
2023-01-03T02:26:59.258Z,5.10
2023-01-03T02:30:12.861Z,6.23
2023-01-03T02:33:19.255Z,4.80
2023-01-03T02:36:15.024Z,7.77
2023-01-03T02:39:07.405Z,7.47
2023-01-03T02:42:17.461Z,7.63
2023-01-03T02:45:17.032Z,8.93
2023-01-03T02:48:05.767Z,4.23
2023-01-03T02:50:55.555Z,2.73
2023-01-03T02:53:46.733Z,6.53
2023-01-03T02:56:48.177Z,4.33
2023-01-03T03:00:01.589Z,8.97
2023-01-03T03:02:52.138Z,8.90
2023-01-03T03:05:53.494Z,3.93
2023-01-03T03:08:44.026Z,5.03
2023-01-03T03:11:52.790Z,4.97
2023-01-03T03:14:43.513Z,6.17
2023-01-03T03:17:31.310Z,7.37
2023-01-03T03:20:37.716Z,7.90
2023-01-03T03:23:46.330Z,9.57
2023-01-03T03:26:38.699Z,6.33
2023-01-03T03:29:26.867Z,9.87
2023-01-03T03:32:14.358Z,5.60
2023-01-03T03:35:03.887Z,3.40
2023-01-03T03:37:53.369Z,6.33
2023-01-03T03:41:04.843Z,3.93
2023-01-03T03:44:28.349Z,5.57
2023-01-03T03:47:22.535Z,6.70
2023-01-03T03:50:30.168Z,5.70
2023-01-03T03:53:18.951Z,7.47
2023-01-03T03:56:09.040Z,5.10
2023-01-03T03:58:58.534Z,5.53
2023-01-03T04:01:46.579Z,8.73
2023-01-03T04:04:36.667Z,7.37
2023-01-03T04:07:24.368Z,5.53
2023-01-03T04:10:12.583Z,8.90
2023-01-03T04:12:59.963Z,8.60
2023-01-03T04:15:47.291Z,5.53
2023-01-03T04:18:35.057Z,9.67
2023-01-03T04:21:22.397Z,4.60
2023-01-03T04:24:09.814Z,6.40
2023-01-03T04:26:57.174Z,5.70
2023-01-03T04:29:44.570Z,9.07
2023-01-03T04:32:31.986Z,7.30
2023-01-03T04:35:19.403Z,4.53
2023-01-03T04:38:07.211Z,5.03
2023-01-03T04:40:54.556Z,7.20
2023-01-03T04:44:00.876Z,5.20
2023-01-03T04:46:52.808Z,5.70
2023-01-03T04:49:40.661Z,6.70
2023-01-03T04:52:29.228Z,9.63
2023-01-03T04:55:16.928Z,4.37
2023-01-03T04:58:04.266Z,5.80
2023-01-03T05:00:51.835Z,8.00
2023-01-03T05:03:39.329Z,3.43
2023-01-03T05:06:27.178Z,8.80
2023-01-03T05:09:14.576Z,4.13
2023-01-03T05:12:01.965Z,4.90
2023-01-03T05:14:49.315Z,6.80
2023-01-03T05:17:36.661Z,7.47
2023-01-03T05:20:43.266Z,4.90
2023-01-03T05:23:49.472Z,4.97
2023-01-03T05:26:38.080Z,7.50
2023-01-03T05:29:26.263Z,4.90
2023-01-03T05:32:13.701Z,7.87
2023-01-03T05:35:01.767Z,7.93
2023-01-03T05:37:49.105Z,6.53
2023-01-03T05:40:41.265Z,6.73
2023-01-03T05:43:29.055Z,7.00
2023-01-03T05:46:16.538Z,7.73
2023-01-03T05:49:04.038Z,8.77
2023-01-03T05:51:51.432Z,6.57
2023-01-03T05:54:38.929Z,7.23
2023-01-03T05:57:30.521Z,6.80
2023-01-03T06:00:22.496Z,9.47
2023-01-03T06:03:09.879Z,5.63
2023-01-03T06:06:02.482Z,8.03
2023-01-03T06:08:49.910Z,4.27
2023-01-03T06:11:37.284Z,7.07
2023-01-03T06:14:24.710Z,6.60
2023-01-03T06:17:30.732Z,6.87
2023-01-03T06:20:18.173Z,6.20
2023-01-03T06:23:05.539Z,5.87
2023-01-03T06:25:52.889Z,4.20
2023-01-03T06:28:40.243Z,6.57
2023-01-03T06:31:27.878Z,8.03
2023-01-03T06:34:15.373Z,5.07
2023-01-03T06:37:02.767Z,4.47
2023-01-03T06:39:50.090Z,7.47
2023-01-03T06:42:42.364Z,8.20
2023-01-03T06:45:48.920Z,5.50
2023-01-03T06:48:55.166Z,7.23
2023-01-03T06:52:03.089Z,6.13
2023-01-03T06:54:50.514Z,7.80
2023-01-03T06:57:37.843Z,7.97
2023-01-03T07:00:25.192Z,4.53
2023-01-03T07:03:12.709Z,11.50
2023-01-03T07:06:00.444Z,6.83
2023-01-03T07:08:48.561Z,6.37
2023-01-03T07:11:36.192Z,7.83
2023-01-03T07:14:23.583Z,7.00
2023-01-03T07:17:11.214Z,7.17
2023-01-03T07:19:58.581Z,7.13
2023-01-03T07:22:45.912Z,6.60
2023-01-03T07:25:33.339Z,9.83
2023-01-03T07:28:20.705Z,8.60
2023-01-03T07:31:08.269Z,5.37
2023-01-03T07:33:55.842Z,9.17
2023-01-03T07:36:43.201Z,6.90
2023-01-03T07:39:30.552Z,15.07
2023-01-03T07:42:36.573Z,11.17
2023-01-03T07:45:23.912Z,4.87
2023-01-03T07:48:11.837Z,9.07
2023-01-03T07:50:59.317Z,7.43
2023-01-03T07:53:47.493Z,7.27
2023-01-03T07:56:34.925Z,9.53
2023-01-03T07:59:22.408Z,10.33
2023-01-03T08:02:09.883Z,11.93
2023-01-03T08:04:57.535Z,6.73
2023-01-03T08:07:44.986Z,9.80
2023-01-03T08:10:51.272Z,8.53
2023-01-03T08:13:38.628Z,8.03
2023-01-03T08:16:26.093Z,9.80
2023-01-03T08:19:13.498Z,10.70
2023-01-03T08:22:00.818Z,8.27
2023-01-03T08:24:48.239Z,10.23
2023-01-03T08:27:35.590Z,10.77
2023-01-03T08:30:23.110Z,9.50
2023-01-03T08:33:11.753Z,9.60
2023-01-03T08:36:03.443Z,7.33
2023-01-03T08:38:56.400Z,9.03
2023-01-03T08:41:45.802Z,8.30
2023-01-03T08:44:33.498Z,10.43
2023-01-03T08:47:20.916Z,10.17
2023-01-03T08:50:09.440Z,10.43
2023-01-03T08:52:57.665Z,7.23
2023-01-03T08:55:45.064Z,7.57
2023-01-03T08:58:32.419Z,8.33
2023-01-03T09:01:20.996Z,11.10
2023-01-03T09:04:08.585Z,8.50
2023-01-03T09:06:56.555Z,7.57
2023-01-03T09:09:43.910Z,7.37
2023-01-03T09:12:31.262Z,8.50
2023-01-03T09:15:18.665Z,8.23
2023-01-03T09:18:07.422Z,6.70
2023-01-03T09:20:54.799Z,6.07
2023-01-03T09:23:42.201Z,7.20
2023-01-03T09:26:30.362Z,5.87
2023-01-03T09:29:17.715Z,5.57
2023-01-03T09:32:05.281Z,6.17
2023-01-03T09:34:52.713Z,5.60
2023-01-03T09:37:45.387Z,5.60
2023-01-03T09:40:40.307Z,4.77
2023-01-03T09:43:34.166Z,5.20
2023-01-03T09:46:25.762Z,8.47
2023-01-03T09:49:14.255Z,7.97
2023-01-03T09:52:20.538Z,6.60
2023-01-03T09:55:41.515Z,5.03
2023-01-03T09:58:47.759Z,8.50
2023-01-03T10:01:59.927Z,6.93
2023-01-03T10:04:47.536Z,7.90
2023-01-03T10:07:50.650Z,6.57
2023-01-03T10:10:52.114Z,5.67
2023-01-03T10:13:42.536Z,5.53
2023-01-03T10:16:50.348Z,6.67
2023-01-03T10:19:49.781Z,8.13
2023-01-03T10:22:38.007Z,8.07
2023-01-03T10:25:25.496Z,6.00
2023-01-03T10:28:23.441Z,8.97
2023-01-03T10:31:17.432Z,5.73
2023-01-03T10:34:06.115Z,5.50
2023-01-03T10:36:53.509Z,5.13
2023-01-03T10:39:43.835Z,6.13
2023-01-03T10:42:33.403Z,6.97
2023-01-03T10:45:21.489Z,6.77
2023-01-03T10:48:14.159Z,5.17
2023-01-03T10:51:03.949Z,6.67
2023-01-03T10:53:53.769Z,6.63
2023-01-03T10:56:41.121Z,7.27
2023-01-03T10:59:30.132Z,5.03
2023-01-03T11:02:19.176Z,7.30
2023-01-03T11:05:12.778Z,6.73
2023-01-03T11:08:02.720Z,4.13
2023-01-03T11:10:57.860Z,6.27
2023-01-03T11:13:47.639Z,5.87
2023-01-03T11:16:35.875Z,5.40
2023-01-03T11:19:26.663Z,6.57
2023-01-03T11:22:37.429Z,4.27
2023-01-03T11:25:25.228Z,5.10
2023-01-03T11:28:21.778Z,3.87
2023-01-03T11:31:12.034Z,5.67
2023-01-03T11:33:59.398Z,4.57
2023-01-03T11:36:49.944Z,4.20
2023-01-03T11:39:37.269Z,4.37
2023-01-03T11:42:30.637Z,7.60
2023-01-03T11:45:36.197Z,5.10
2023-01-03T11:48:49.652Z,5.40
2023-01-03T11:51:42.193Z,4.27
2023-01-03T11:54:29.731Z,5.63
2023-01-03T11:57:20.015Z,3.10
2023-01-03T12:00:11.674Z,4.70
2023-01-03T12:03:28.469Z,6.30
2023-01-03T12:06:29.099Z,4.80
2023-01-03T12:09:28.113Z,5.53
2023-01-03T12:12:21.358Z,4.33
2023-01-03T12:15:12.515Z,2.70
2023-01-03T12:18:07.131Z,3.43
2023-01-03T12:21:03.841Z,5.37
2023-01-03T12:23:56.735Z,2.57
2023-01-03T12:26:45.251Z,5.33
2023-01-03T12:29:43.975Z,6.10
2023-01-03T12:32:45.825Z,12.57
2023-01-03T12:35:44.212Z,3.67
2023-01-03T12:38:33.393Z,4.13
2023-01-03T12:41:39.423Z,3.70
2023-01-03T12:44:32.705Z,3.63
2023-01-03T12:47:29.705Z,2.40
2023-01-03T12:50:17.040Z,6.50
2023-01-03T12:53:10.956Z,6.80
2023-01-03T12:55:58.327Z,5.67
2023-01-03T12:58:56.337Z,6.53
2023-01-03T13:01:45.980Z,2.83
2023-01-03T13:04:35.569Z,3.27
2023-01-03T13:07:23.027Z,4.23
2023-01-03T13:10:14.871Z,5.83
2023-01-03T13:13:02.783Z,3.50
2023-01-03T13:15:50.425Z,7.17
2023-01-03T13:18:38.158Z,3.50
2023-01-03T13:21:45.966Z,3.60
2023-01-03T13:24:39.342Z,4.97
2023-01-03T13:27:50.113Z,3.57
2023-01-03T13:30:38.626Z,4.33
2023-01-03T13:33:26.319Z,2.33
2023-01-03T13:36:15.907Z,2.67
2023-01-03T13:39:23.606Z,2.50
2023-01-03T13:42:31.552Z,3.20
2023-01-03T13:45:31.427Z,2.80
2023-01-03T13:48:23.918Z,3.20
2023-01-03T13:51:11.671Z,2.87
2023-01-03T13:54:00.706Z,3.43
2023-01-03T13:56:49.910Z,3.70
2023-01-03T13:59:42.529Z,3.67
2023-01-03T14:02:45.070Z,4.83
2023-01-03T14:05:44.220Z,5.63
2023-01-03T14:08:40.938Z,2.83
2023-01-03T14:12:00.506Z,3.87
2023-01-03T14:14:53.622Z,5.73
2023-01-03T14:17:43.817Z,4.10
2023-01-03T14:20:33.274Z,4.53
2023-01-03T14:23:58.562Z,9.37
2023-01-03T14:26:33.484Z,10.82
2023-01-03T14:29:23.844Z,12.77
2023-01-03T14:32:37.313Z,9.00
2023-01-03T14:35:33.935Z,5.97
2023-01-03T14:38:26.795Z,11.73
2023-01-03T14:41:43.658Z,10.87
2023-01-03T14:44:31.768Z,7.80
2023-01-03T14:47:19.892Z,11.07
2023-01-03T14:50:09.151Z,16.07
2023-01-03T14:52:58.497Z,23.53
2023-01-03T14:55:53.626Z,15.07
2023-01-03T14:58:45.156Z,12.43
2023-01-03T15:01:33.356Z,10.80
2023-01-03T15:04:21.517Z,5.40
2023-01-03T15:07:22.218Z,7.17
2023-01-03T15:10:12.355Z,16.27
2023-01-03T15:13:04.592Z,13.03
2023-01-03T15:15:57.057Z,8.93
2023-01-03T15:18:45.312Z,4.27
2023-01-03T15:21:33.074Z,6.17
2023-01-03T15:24:21.963Z,8.57
2023-01-03T15:27:27.989Z,4.90
2023-01-03T15:30:15.982Z,9.87
2023-01-03T15:33:05.450Z,5.27
2023-01-03T15:35:55.806Z,7.07
2023-01-03T15:38:45.977Z,11.23
2023-01-03T15:42:19.645Z,10.80
2023-01-03T15:45:00.220Z,10.50
2023-01-03T15:47:49.305Z,15.90
2023-01-03T15:50:40.229Z,13.77
2023-01-03T15:53:34.306Z,14.67
2023-01-03T15:56:28.324Z,16.67
2023-01-03T15:59:21.310Z,11.20
2023-01-03T16:02:19.607Z,11.40
2023-01-03T16:05:08.447Z,10.63
2023-01-03T16:07:55.953Z,15.57
2023-01-03T16:10:43.325Z,12.30
2023-01-03T16:13:32.520Z,15.30
2023-01-03T16:16:23.868Z,20.87
2023-01-03T16:19:17.662Z,32.43
2023-01-03T16:25:16.821Z,23.73
2023-01-03T16:28:12.622Z,23.00
2023-01-03T16:31:22.402Z,17.60
2023-01-03T16:34:18.132Z,13.27
2023-01-03T16:37:05.775Z,10.37
2023-01-03T16:39:53.144Z,8.90
2023-01-03T16:42:40.509Z,11.83
2023-01-03T16:45:27.944Z,11.13
2023-01-03T16:48:20.712Z,13.10
2023-01-03T16:51:08.373Z,14.73
2023-01-03T16:53:56.522Z,8.67
2023-01-03T16:56:44.215Z,12.77
2023-01-03T16:59:32.200Z,10.80
2023-01-03T17:02:19.980Z,15.20
2023-01-03T17:05:07.700Z,8.60
2023-01-03T17:07:59.957Z,11.83
2023-01-03T17:10:48.531Z,12.00
2023-01-03T17:13:37.631Z,12.10
2023-01-03T17:16:25.340Z,12.47
2023-01-03T17:20:01.204Z,11.37
2023-01-03T17:22:27.502Z,13.40
2023-01-03T17:25:15.427Z,11.57
2023-01-03T17:28:02.850Z,12.40
2023-01-03T17:30:54.322Z,14.17
2023-01-03T17:33:42.464Z,12.17
2023-01-03T17:36:33.972Z,13.10
2023-01-03T17:39:21.712Z,16.93
2023-01-03T17:42:16.557Z,12.87
2023-01-03T17:45:22.778Z,12.30
2023-01-03T17:48:32.425Z,17.63
2023-01-03T17:51:19.852Z,19.67
2023-01-03T17:54:07.273Z,15.50
2023-01-03T17:56:55.433Z,21.50
2023-01-03T17:59:43.351Z,17.43
2023-01-03T18:02:32.039Z,16.93
2023-01-03T18:05:27.058Z,15.23
2023-01-03T18:08:18.171Z,18.77
2023-01-03T18:11:07.285Z,18.53
2023-01-03T18:13:54.744Z,18.53
2023-01-03T18:16:42.917Z,17.77
2023-01-03T18:19:30.302Z,19.50
2023-01-03T18:22:18.298Z,19.00
2023-01-03T18:25:05.877Z,19.53
2023-01-03T18:27:55.212Z,23.13
2023-01-03T18:30:42.616Z,23.43
2023-01-03T18:33:30.009Z,22.83
2023-01-03T18:36:28.789Z,21.93
2023-01-03T18:39:17.680Z,32.23
2023-01-03T18:42:23.819Z,20.63
2023-01-03T18:45:15.075Z,21.10
2023-01-03T18:48:02.769Z,19.47
2023-01-03T18:50:57.928Z,22.03
2023-01-03T18:53:47.878Z,22.20
2023-01-03T18:56:40.053Z,21.80
2023-01-03T18:59:27.865Z,22.93
2023-01-03T19:02:19.840Z,20.23
2023-01-03T19:05:07.489Z,26.63
2023-01-03T19:07:55.004Z,22.07
2023-01-03T19:10:42.422Z,23.80
2023-01-03T19:13:49.672Z,26.17
2023-01-03T19:16:38.260Z,22.77
2023-01-03T19:19:25.708Z,23.70
2023-01-03T19:22:26.019Z,27.13
2023-01-03T19:25:33.660Z,24.57
2023-01-03T19:28:23.269Z,23.07
2023-01-03T19:31:13.002Z,24.47
2023-01-03T19:34:00.569Z,27.77
2023-01-03T19:36:48.377Z,28.33
2023-01-03T19:39:37.816Z,29.73
2023-01-03T19:42:44.266Z,26.93
2023-01-03T19:45:36.289Z,23.77
2023-01-03T19:48:24.569Z,25.23
2023-01-03T19:51:12.834Z,28.03
2023-01-03T19:54:00.249Z,25.50
2023-01-03T19:56:47.885Z,28.93
2023-01-03T19:59:36.987Z,24.33
2023-01-03T20:02:27.807Z,26.03
2023-01-03T20:05:18.791Z,24.70
2023-01-03T20:08:12.057Z,26.80
2023-01-03T20:11:00.177Z,28.90
2023-01-03T20:13:47.687Z,27.97
2023-01-03T20:16:35.329Z,25.50
2023-01-03T20:19:23.802Z,30.33
2023-01-03T20:22:30.172Z,27.00
2023-01-03T20:25:24.706Z,28.00
2023-01-03T20:28:19.681Z,25.93
2023-01-03T20:31:07.946Z,26.37
2023-01-03T20:33:55.600Z,29.00
2023-01-03T20:36:44.935Z,26.37
2023-01-03T20:39:34.356Z,26.70
2023-01-03T20:42:22.839Z,26.57
2023-01-03T20:45:10.616Z,24.00
2023-01-03T20:47:57.741Z,23.27
2023-01-03T20:50:45.847Z,28.07
2023-01-03T20:53:32.939Z,27.83
2023-01-03T20:56:20.148Z,23.30
2023-01-03T20:59:07.476Z,27.53
2023-01-03T21:01:54.560Z,27.53
2023-01-03T21:04:41.908Z,28.27
2023-01-03T21:07:50.304Z,28.47
2023-01-03T21:10:43.163Z,23.53
2023-01-03T21:13:30.199Z,23.93
2023-01-03T21:16:29.061Z,25.43
2023-01-03T21:19:17.212Z,22.37
2023-01-03T21:22:13.730Z,24.43
2023-01-03T21:25:02.689Z,25.93
2023-01-03T21:27:50.293Z,23.27
2023-01-03T21:30:38.027Z,21.37
2023-01-03T21:33:25.490Z,25.73
2023-01-03T21:36:20.867Z,26.13
2023-01-03T21:39:10.899Z,19.80
2023-01-03T21:42:17.608Z,20.17
2023-01-03T21:45:10.362Z,26.40
2023-01-03T21:47:57.759Z,22.57
2023-01-03T21:50:46.821Z,22.90
2023-01-03T21:53:34.245Z,22.07
2023-01-03T21:56:23.610Z,20.37
2023-01-03T21:59:12.297Z,21.67
2023-01-03T22:02:18.167Z,23.73
2023-01-03T22:05:05.425Z,19.53
2023-01-03T22:07:52.678Z,19.60
2023-01-03T22:10:42.674Z,20.77
2023-01-03T22:13:30.429Z,22.17
2023-01-03T22:16:17.394Z,25.07
2023-01-03T22:19:04.499Z,23.07
2023-01-03T22:21:51.444Z,21.43
2023-01-03T22:24:38.444Z,25.77
2023-01-03T22:27:25.614Z,22.53
2023-01-03T22:30:15.169Z,20.33
2023-01-03T22:33:02.380Z,23.03
2023-01-03T22:35:49.443Z,18.97
2023-01-03T22:38:37.867Z,19.23
2023-01-03T22:41:24.864Z,22.23
2023-01-03T22:44:11.968Z,21.40
2023-01-03T22:46:59.177Z,17.23
2023-01-03T22:49:46.232Z,20.00
2023-01-03T22:52:36.259Z,15.43
2023-01-03T22:55:29.985Z,17.53
2023-01-03T22:58:19.491Z,16.10
2023-01-03T23:01:18.319Z,16.47
2023-01-03T23:04:09.038Z,16.00
2023-01-03T23:06:56.611Z,16.10
2023-01-03T23:09:44.594Z,15.70
2023-01-03T23:12:50.826Z,15.67
2023-01-03T23:15:38.564Z,13.30
2023-01-03T23:18:26.130Z,14.13
2023-01-03T23:21:13.678Z,10.83
2023-01-03T23:24:01.813Z,12.40
2023-01-03T23:26:50.039Z,13.03
2023-01-03T23:29:38.480Z,11.83
2023-01-03T23:32:25.886Z,13.63
2023-01-03T23:35:13.309Z,11.10
2023-01-03T23:38:01.310Z,10.37
2023-01-03T23:40:48.719Z,11.07
2023-01-03T23:43:36.346Z,8.80
2023-01-03T23:46:24.260Z,10.27
2023-01-03T23:49:13.248Z,9.60
2023-01-03T23:52:00.600Z,9.43
2023-01-03T23:54:47.961Z,9.33
2023-01-03T23:57:35.382Z,8.23
